Time;durP1;ratioP1;P1;durP2;ratioP2;P2;SDS_P1;SDS_P2;PMS_P1;PMS_P2;Temp;Humidity;BMP_temperature;BMP_pressure;BME280_temperature;BME280_humidity;BME280_pressure;Samples;Min_cycle;Max_cycle;Signal;HPM_P1;HPM_P2
2022/04/08 00:01:49;;;;;;;;;;;11.00;99.90;;;;;;5053842;28;19916;-77
2022/04/08 00:04:15;;;;;;;;;;;10.90;99.90;;;;;;5053848;28;19913;-78
2022/04/08 00:06:41;;;;;;;;;;;10.90;99.90;;;;;;5053749;28;19909;-77
2022/04/08 00:09:06;;;;;;;;;;;10.80;99.90;;;;;;5053679;28;19931;-78
2022/04/08 00:11:32;;;;;;;;;;;10.70;99.90;;;;;;5053738;28;19909;-78
2022/04/08 00:13:57;;;;;;;;;;;10.80;99.90;;;;;;5053767;28;20387;-79
2022/04/08 00:16:23;;;;;;;;;;;10.80;99.90;;;;;;5053697;28;19913;-78
2022/04/08 00:18:49;;;;;;;;;;;10.80;99.90;;;;;;5053409;28;19928;-78
2022/04/08 00:21:15;;;;;;;;;;;10.80;99.90;;;;;;5053729;28;19938;-78
2022/04/08 00:23:40;;;;;;;;;;;10.80;99.90;;;;;;5053395;28;19920;-78
2022/04/08 00:26:06;;;;;;;;;;;10.70;99.90;;;;;;5035623;28;19908;-79
2022/04/08 00:28:31;;;;;;;;;;;10.60;99.90;;;;;;5053458;28;19908;-78
2022/04/08 00:30:57;;;;;;;;;;;10.50;99.90;;;;;;5053665;28;19916;-77
2022/04/08 00:33:23;;;;;;;;;;;10.40;99.90;;;;;;5053491;28;19916;-79
2022/04/08 00:35:48;;;;;;;;;;;10.50;99.90;;;;;;5053446;28;20358;-78
2022/04/08 00:38:14;;;;;;;;;;;10.50;99.90;;;;;;5053393;28;19912;-78
2022/04/08 00:40:39;;;;;;;;;;;10.60;99.90;;;;;;5053334;28;19915;-78
2022/04/08 00:43:12;;;;;;;;;;;10.60;99.90;;;;;;5053299;28;20431;-78
2022/04/08 00:45:38;;;;;;;;;;;10.60;99.90;;;;;;5053302;28;19915;-79
2022/04/08 00:48:07;;;;;;;;;;;10.60;99.90;;;;;;5053434;28;19913;-78
2022/04/08 00:50:37;;;;;;;;;;;10.40;99.90;;;;;;5053266;28;19916;-78
2022/04/08 00:53:02;;;;;;;;;;;10.40;99.90;;;;;;5053257;28;19913;-78
2022/04/08 00:55:28;;;;;;;;;;;10.30;99.90;;;;;;5053490;28;20007;-78
2022/04/08 00:57:54;;;;;;;;;;;10.10;99.90;;;;;;5035328;28;19957;-78
2022/04/08 01:00:22;;;;;;;;;;;10.10;99.90;;;;;;5035295;28;19938;-78
2022/04/08 01:02:48;;;;;;;;;;;10.10;99.90;;;;;;5053225;28;20281;-79
2022/04/08 01:05:13;;;;;;;;;;;10.20;99.90;;;;;;5053204;28;19913;-78
2022/04/08 01:07:39;;;;;;;;;;;10.20;99.90;;;;;;5053319;28;19909;-78
2022/04/08 01:10:05;;;;;;;;;;;10.10;99.90;;;;;;5035280;28;20373;-78
2022/04/08 01:12:31;;;;;;;;;;;10.00;99.90;;;;;;5053264;28;19909;-79
2022/04/08 01:14:59;;;;;;;;;;;10.00;99.90;;;;;;5053062;28;20327;-78
2022/04/08 01:17:26;;;;;;;;;;;10.00;99.90;;;;;;5053020;28;20373;-78
2022/04/08 01:19:51;;;;;;;;;;;9.90;99.90;;;;;;5052616;28;20428;-78
2022/04/08 01:22:17;;;;;;;;;;;9.90;99.90;;;;;;5052956;28;19909;-78
2022/04/08 01:24:45;;;;;;;;;;;10.00;99.90;;;;;;5052884;28;20293;-78
2022/04/08 01:27:11;;;;;;;;;;;10.10;99.90;;;;;;5052909;28;19909;-77
2022/04/08 01:29:37;;;;;;;;;;;10.00;99.90;;;;;;5035005;28;19909;-77
2022/04/08 01:32:02;;;;;;;;;;;10.10;99.90;;;;;;5053430;28;19996;-79
2022/04/08 01:34:28;;;;;;;;;;;10.10;99.90;;;;;;5052837;28;19909;-78
2022/04/08 01:36:53;;;;;;;;;;;10.20;99.90;;;;;;5055662;28;19975;-78
2022/04/08 01:39:19;;;;;;;;;;;10.20;99.90;;;;;;5056837;28;19908;-78
2022/04/08 01:41:45;;;;;;;;;;;10.10;99.90;;;;;;5056726;28;19915;-77
2022/04/08 01:44:10;;;;;;;;;;;10.10;99.90;;;;;;5056323;28;20288;-78
2022/04/08 01:46:36;;;;;;;;;;;10.10;99.90;;;;;;5056343;28;20393;-78
2022/04/08 01:49:01;;;;;;;;;;;10.10;99.90;;;;;;5056273;28;19916;-78
2022/04/08 01:51:27;;;;;;;;;;;10.00;99.90;;;;;;5056607;28;20254;-77
2022/04/08 01:53:52;;;;;;;;;;;10.00;99.90;;;;;;5056414;28;19916;-79
2022/04/08 01:56:18;;;;;;;;;;;9.90;99.90;;;;;;5056217;28;19920;-78
2022/04/08 01:58:44;;;;;;;;;;;9.70;99.90;;;;;;5054838;28;20000;-78
2022/04/08 02:01:10;;;;;;;;;;;9.80;99.90;;;;;;5056046;28;19932;-78
2022/04/08 02:03:35;;;;;;;;;;;9.90;99.90;;;;;;5056100;28;19913;-78
2022/04/08 02:06:01;;;;;;;;;;;9.90;99.90;;;;;;5056198;28;19995;-78
2022/04/08 02:08:26;;;;;;;;;;;9.90;99.90;;;;;;5055879;28;19913;-78
2022/04/08 02:10:53;;;;;;;;;;;10.00;99.90;;;;;;5055878;28;20277;-77
2022/04/08 02:13:19;;;;;;;;;;;9.90;99.90;;;;;;5056239;28;19931;-78
2022/04/08 02:15:46;;;;;;;;;;;9.80;99.90;;;;;;5055772;28;19909;-78
2022/04/08 02:18:12;;;;;;;;;;;9.80;99.90;;;;;;5055742;28;19924;-78
2022/04/08 02:20:37;;;;;;;;;;;9.80;99.90;;;;;;5055695;28;19909;-78
2022/04/08 02:23:03;;;;;;;;;;;9.80;99.90;;;;;;5055842;28;19916;-78
2022/04/08 02:25:29;;;;;;;;;;;9.90;99.90;;;;;;5055806;28;20332;-78
2022/04/08 02:27:55;;;;;;;;;;;10.00;99.90;;;;;;5055770;28;19916;-79
2022/04/08 02:30:21;;;;;;;;;;;10.00;99.90;;;;;;5055529;28;19909;-78
2022/04/08 02:32:47;;;;;;;;;;;9.90;99.90;;;;;;5055663;28;19948;-78
2022/04/08 02:35:12;;;;;;;;;;;10.00;99.90;;;;;;5055589;28;19909;-78
2022/04/08 02:37:39;;;;;;;;;;;10.00;99.90;;;;;;5055512;28;19909;-78
2022/04/08 02:40:05;;;;;;;;;;;10.00;99.90;;;;;;5055420;28;19913;-78
2022/04/08 02:42:31;;;;;;;;;;;10.10;99.90;;;;;;5055245;28;19909;-78
2022/04/08 02:44:57;;;;;;;;;;;10.20;99.90;;;;;;5055135;28;19966;-77
2022/04/08 02:47:23;;;;;;;;;;;10.20;99.90;;;;;;5054932;28;20369;-78
2022/04/08 02:49:48;;;;;;;;;;;10.10;99.90;;;;;;5037235;28;19962;-78
2022/04/08 02:52:14;;;;;;;;;;;10.10;99.90;;;;;;5055201;28;19916;-78
2022/04/08 02:54:40;;;;;;;;;;;10.10;99.90;;;;;;5055149;28;19948;-78
2022/04/08 02:57:06;;;;;;;;;;;10.00;99.90;;;;;;5054988;28;20054;-78
2022/04/08 02:59:31;;;;;;;;;;;10.00;99.90;;;;;;5037011;28;19909;-78
2022/04/08 03:01:57;;;;;;;;;;;10.10;99.90;;;;;;5054912;28;19909;-78
2022/04/08 03:04:22;;;;;;;;;;;10.00;99.90;;;;;;5036829;28;19916;-77
2022/04/08 03:06:48;;;;;;;;;;;9.90;99.90;;;;;;5054874;28;19941;-79
2022/04/08 03:09:14;;;;;;;;;;;9.90;99.90;;;;;;5054962;28;19913;-78
2022/04/08 03:11:39;;;;;;;;;;;9.90;99.90;;;;;;5055110;28;19909;-78
2022/04/08 03:14:05;;;;;;;;;;;9.80;99.90;;;;;;5054971;28;19912;-78
2022/04/08 03:16:31;;;;;;;;;;;9.80;99.90;;;;;;5054846;28;20377;-78
2022/04/08 03:18:56;;;;;;;;;;;9.70;99.90;;;;;;5043005;28;19925;-77
2022/04/08 03:21:22;;;;;;;;;;;9.60;99.90;;;;;;5054533;28;19908;-77
2022/04/08 03:23:48;;;;;;;;;;;9.50;99.90;;;;;;5054673;28;19967;-77
2022/04/08 03:26:14;;;;;;;;;;;9.50;99.90;;;;;;5054452;28;19913;-77
2022/04/08 03:28:39;;;;;;;;;;;9.50;99.90;;;;;;5054503;28;20281;-77
2022/04/08 03:31:05;;;;;;;;;;;9.50;99.90;;;;;;5054378;28;19916;-77
2022/04/08 03:33:31;;;;;;;;;;;9.50;99.90;;;;;;5054329;28;19908;-77
2022/04/08 03:35:56;;;;;;;;;;;9.50;99.90;;;;;;5054590;28;19915;-77
2022/04/08 03:38:22;;;;;;;;;;;9.40;99.90;;;;;;5053260;28;19959;-78
2022/04/08 03:40:48;;;;;;;;;;;9.40;99.90;;;;;;5054198;28;20008;-77
2022/04/08 03:43:14;;;;;;;;;;;9.40;99.90;;;;;;5054116;28;19913;-78
2022/04/08 03:45:39;;;;;;;;;;;9.40;99.90;;;;;;5054274;28;19908;-79
2022/04/08 03:48:07;;;;;;;;;;;9.40;99.90;;;;;;5054070;28;20399;-79
2022/04/08 03:50:32;;;;;;;;;;;9.40;99.90;;;;;;5053973;28;19935;-79
2022/04/08 03:52:58;;;;;;;;;;;9.40;99.90;;;;;;5052690;28;19908;-79
2022/04/08 03:55:24;;;;;;;;;;;9.40;99.90;;;;;;5053895;28;19951;-81
2022/04/08 03:57:49;;;;;;;;;;;9.30;99.90;;;;;;5053616;28;19951;-79
2022/04/08 04:00:15;;;;;;;;;;;9.40;99.90;;;;;;5053676;28;19909;-80
2022/04/08 04:02:41;;;;;;;;;;;9.50;99.90;;;;;;5053854;28;19961;-79
2022/04/08 04:05:07;;;;;;;;;;;9.50;99.90;;;;;;5054104;28;19920;-78
2022/04/08 04:07:33;;;;;;;;;;;9.60;99.90;;;;;;5054265;28;19932;-79
2022/04/08 04:09:59;;;;;;;;;;;9.50;99.90;;;;;;5053858;28;20358;-79
2022/04/08 04:12:26;;;;;;;;;;;9.50;99.90;;;;;;5053648;28;19916;-77
2022/04/08 04:14:54;;;;;;;;;;;9.40;99.90;;;;;;5052392;28;19916;-78
2022/04/08 04:17:21;;;;;;;;;;;9.40;99.90;;;;;;5052305;28;19916;-78
2022/04/08 04:19:46;;;;;;;;;;;9.40;99.90;;;;;;5053482;28;19966;-79
2022/04/08 04:22:12;;;;;;;;;;;9.30;99.90;;;;;;5053283;28;19908;-80
2022/04/08 04:24:38;;;;;;;;;;;9.20;99.90;;;;;;5053475;28;19952;-81
2022/04/08 04:27:04;;;;;;;;;;;9.20;99.90;;;;;;5053534;28;19919;-82
2022/04/08 04:29:29;;;;;;;;;;;9.20;99.90;;;;;;5053606;28;20003;-83
2022/04/08 04:31:56;;;;;;;;;;;9.20;99.90;;;;;;5053787;28;20448;-82
2022/04/08 04:34:25;;;;;;;;;;;9.20;99.90;;;;;;5035513;28;20281;-82
2022/04/08 04:36:50;;;;;;;;;;;9.20;99.90;;;;;;5053433;28;19968;-82
2022/04/08 04:39:16;;;;;;;;;;;9.20;99.90;;;;;;5053627;28;20037;-82
2022/04/08 04:41:41;;;;;;;;;;;9.20;99.90;;;;;;5053505;28;19909;-84
2022/04/08 04:44:07;;;;;;;;;;;9.20;99.90;;;;;;5053310;28;19919;-84
2022/04/08 04:46:33;;;;;;;;;;;9.20;99.90;;;;;;5053343;28;19959;-84
2022/04/08 04:48:58;;;;;;;;;;;9.20;99.90;;;;;;5053345;28;19912;-84
2022/04/08 04:51:24;;;;;;;;;;;9.20;99.90;;;;;;5053734;28;19927;-84
2022/04/08 04:53:49;;;;;;;;;;;9.20;99.90;;;;;;5053284;28;19932;-84
2022/04/08 04:56:15;;;;;;;;;;;9.30;99.90;;;;;;5053289;28;20289;-85
2022/04/08 04:58:40;;;;;;;;;;;9.30;99.90;;;;;;5053205;28;20330;-83
2022/04/08 05:01:06;;;;;;;;;;;9.30;99.90;;;;;;5053710;28;19909;-84
2022/04/08 05:03:32;;;;;;;;;;;9.30;99.90;;;;;;5035255;28;19951;-83
2022/04/08 05:05:57;;;;;;;;;;;9.30;99.90;;;;;;5053169;28;19962;-83
2022/04/08 05:08:23;;;;;;;;;;;9.40;99.90;;;;;;5053379;28;19940;-83
2022/04/08 05:10:48;;;;;;;;;;;9.40;99.90;;;;;;5056201;28;19909;-84
2022/04/08 05:13:14;;;;;;;;;;;9.40;99.90;;;;;;5039212;28;19916;-84
2022/04/08 05:15:42;;;;;;;;;;;9.40;99.90;;;;;;5056946;28;19963;-83
2022/04/08 05:18:14;;;;;;;;;;;9.40;99.90;;;;;;5038698;28;19917;-84
2022/04/08 05:20:40;;;;;;;;;;;9.50;99.90;;;;;;5038910;28;19913;-84
2022/04/08 05:23:06;;;;;;;;;;;9.50;99.90;;;;;;5056893;28;19909;-84
2022/04/08 05:25:31;;;;;;;;;;;9.50;99.90;;;;;;5056823;28;19909;-83
2022/04/08 05:27:57;;;;;;;;;;;9.60;99.90;;;;;;5056820;28;20365;-83
2022/04/08 05:30:23;;;;;;;;;;;9.70;99.90;;;;;;5057031;28;19916;-82
2022/04/08 05:32:49;;;;;;;;;;;9.80;99.90;;;;;;5038549;28;19916;-81
2022/04/08 05:35:16;;;;;;;;;;;9.80;99.90;;;;;;5056606;28;19909;-81
2022/04/08 05:37:42;;;;;;;;;;;9.90;99.90;;;;;;5056526;28;19959;-82
2022/04/08 05:40:09;;;;;;;;;;;10.00;99.90;;;;;;5056807;28;19909;-82
2022/04/08 05:42:35;;;;;;;;;;;10.20;99.90;;;;;;5056449;28;19955;-82
2022/04/08 05:45:00;;;;;;;;;;;10.60;99.90;;;;;;5056383;28;19913;-83
2022/04/08 05:47:27;;;;;;;;;;;11.20;99.90;;;;;;5056739;28;19975;-82
2022/04/08 05:49:52;;;;;;;;;;;11.60;99.90;;;;;;5056438;28;19956;-83
2022/04/08 05:52:18;;;;;;;;;;;11.90;99.90;;;;;;5056196;28;20019;-82
2022/04/08 05:54:43;;;;;;;;;;;12.00;99.90;;;;;;5056372;28;19920;-81
2022/04/08 05:57:09;;;;;;;;;;;12.10;99.90;;;;;;5056155;28;20377;-82
2022/04/08 05:59:37;;;;;;;;;;;12.10;99.90;;;;;;5038129;28;19909;-81
2022/04/08 06:02:05;;;;;;;;;;;12.10;99.90;;;;;;5056050;28;19909;-82
2022/04/08 06:04:31;;;;;;;;;;;12.20;99.90;;;;;;5038044;28;19948;-83
2022/04/08 06:06:56;;;;;;;;;;;12.20;99.90;;;;;;5056071;28;19956;-80
2022/04/08 06:09:22;;;;;;;;;;;12.20;99.90;;;;;;5055934;28;19909;-81
2022/04/08 06:11:48;;;;;;;;;;;12.20;99.90;;;;;;5038001;28;19908;-81
2022/04/08 06:14:14;;;;;;;;;;;12.20;99.90;;;;;;5055867;28;20412;-81
2022/04/08 06:16:39;;;;;;;;;;;12.20;99.90;;;;;;5056042;28;19909;-81
2022/04/08 06:19:05;;;;;;;;;;;12.30;99.90;;;;;;5037625;28;19921;-81
2022/04/08 06:21:31;;;;;;;;;;;12.30;99.90;;;;;;5055113;28;19909;-81
2022/04/08 06:23:56;;;;;;;;;;;12.30;99.90;;;;;;5056028;28;19912;-82
2022/04/08 06:26:22;;;;;;;;;;;12.30;99.90;;;;;;5037772;28;19912;-83
2022/04/08 06:28:47;;;;;;;;;;;12.30;99.90;;;;;;5055851;28;20293;-81
2022/04/08 06:31:13;;;;;;;;;;;12.30;99.90;;;;;;5055559;28;19909;-81
2022/04/08 06:33:39;;;;;;;;;;;12.30;99.90;;;;;;5055509;28;20008;-81
2022/04/08 06:36:04;;;;;;;;;;;12.20;99.90;;;;;;5055878;28;19912;-81
2022/04/08 06:38:30;;;;;;;;;;;12.20;99.90;;;;;;5055686;28;19987;-82
2022/04/08 06:40:55;;;;;;;;;;;12.20;99.90;;;;;;5054066;28;20282;-81
2022/04/08 06:43:21;;;;;;;;;;;12.20;99.90;;;;;;5055313;28;19931;-82
2022/04/08 06:45:47;;;;;;;;;;;12.10;99.90;;;;;;5054291;28;19978;-82
2022/04/08 06:48:13;;;;;;;;;;;12.10;99.90;;;;;;5053925;28;19991;-83
2022/04/08 06:50:39;;;;;;;;;;;12.10;99.90;;;;;;5037636;28;19955;-81
2022/04/08 06:53:05;;;;;;;;;;;12.10;99.90;;;;;;5037269;28;20258;-81
2022/04/08 06:55:31;;;;;;;;;;;12.10;99.90;;;;;;5055081;28;19908;-81
2022/04/08 06:57:58;;;;;;;;;;;12.00;99.90;;;;;;5055061;28;19950;-82
2022/04/08 07:00:24;;;;;;;;;;;12.00;99.90;;;;;;5055022;28;20392;-81
2022/04/08 07:02:49;;;;;;;;;;;11.90;99.90;;;;;;5055281;28;19909;-81
2022/04/08 07:05:15;;;;;;;;;;;12.00;99.90;;;;;;5054817;28;19979;-81
2022/04/08 07:07:40;;;;;;;;;;;11.90;99.90;;;;;;5054929;28;19948;-82
2022/04/08 07:10:07;;;;;;;;;;;11.90;99.90;;;;;;5036887;28;19908;-82
2022/04/08 07:12:33;;;;;;;;;;;11.90;99.90;;;;;;5054721;28;19916;-83
2022/04/08 07:14:58;;;;;;;;;;;11.90;99.90;;;;;;5054706;28;19909;-83
2022/04/08 07:17:28;;;;;;;;;;;11.90;99.90;;;;;;5054875;28;19912;-82
2022/04/08 07:19:54;;;;;;;;;;;11.90;99.90;;;;;;5054276;28;19964;-82
2022/04/08 07:22:20;;;;;;;;;;;12.00;99.90;;;;;;5054609;28;19999;-81
2022/04/08 07:24:45;;;;;;;;;;;11.90;99.90;;;;;;5054473;28;20444;-81
2022/04/08 07:27:11;;;;;;;;;;;12.00;99.90;;;;;;5054384;28;19923;-81
2022/04/08 07:29:37;;;;;;;;;;;12.00;99.90;;;;;;5036554;28;19996;-83
2022/04/08 07:32:02;;;;;;;;;;;12.00;99.90;;;;;;5054399;28;20335;-81
2022/04/08 07:34:28;;;;;;;;;;;12.00;99.90;;;;;;5053476;28;19909;-82
2022/04/08 07:36:53;;;;;;;;;;;11.90;99.90;;;;;;5054902;28;19928;-83
2022/04/08 07:39:19;;;;;;;;;;;11.80;99.90;;;;;;5054253;28;20269;-81
2022/04/08 07:41:45;;;;;;;;;;;11.80;99.90;;;;;;5054234;28;20404;-82
2022/04/08 07:44:11;;;;;;;;;;;11.80;99.90;;;;;;5054389;28;19912;-83
2022/04/08 07:46:37;;;;;;;;;;;11.80;99.90;;;;;;5036233;28;19912;-82
2022/04/08 07:49:07;;;;;;;;;;;11.80;99.90;;;;;;5054088;28;20277;-81
2022/04/08 07:51:32;;;;;;;;;;;11.80;99.90;;;;;;5036151;28;20012;-81
2022/04/08 07:53:58;;;;;;;;;;;11.80;99.90;;;;;;5053958;28;19995;-82
2022/04/08 07:56:23;;;;;;;;;;;11.90;99.90;;;;;;5053977;28;19920;-81
2022/04/08 07:58:49;;;;;;;;;;;11.90;99.90;;;;;;5053873;28;19908;-82
2022/04/08 08:01:15;;;;;;;;;;;11.80;99.90;;;;;;5036054;28;19915;-81
2022/04/08 08:03:42;;;;;;;;;;;12.00;99.90;;;;;;5053923;28;19913;-82
2022/04/08 08:06:08;;;;;;;;;;;11.90;99.90;;;;;;5053843;28;19909;-82
2022/04/08 08:08:33;;;;;;;;;;;12.00;99.90;;;;;;5035899;28;19908;-82
2022/04/08 08:10:59;;;;;;;;;;;12.10;99.90;;;;;;5054355;28;20273;-82
2022/04/08 08:13:25;;;;;;;;;;;12.20;99.90;;;;;;5053725;28;19952;-81
2022/04/08 08:15:50;;;;;;;;;;;12.10;99.90;;;;;;5035843;28;19908;-81
2022/04/08 08:18:17;;;;;;;;;;;12.20;99.90;;;;;;5053505;28;19917;-81
2022/04/08 08:20:43;;;;;;;;;;;12.30;99.90;;;;;;5053660;28;20270;-82
2022/04/08 08:23:09;;;;;;;;;;;12.20;99.90;;;;;;5054117;28;19916;-81
2022/04/08 08:25:34;;;;;;;;;;;12.40;99.90;;;;;;5053920;28;19966;-81
2022/04/08 08:28:01;;;;;;;;;;;12.60;99.90;;;;;;5035701;28;19916;-81
2022/04/08 08:30:29;;;;;;;;;;;12.70;99.90;;;;;;5035743;28;20320;-81
2022/04/08 08:32:55;;;;;;;;;;;12.80;99.90;;;;;;5053764;28;19992;-80
2022/04/08 08:35:21;;;;;;;;;;;12.90;99.90;;;;;;5035615;28;20027;-80
2022/04/08 08:37:48;;;;;;;;;;;13.20;99.90;;;;;;5053463;28;19916;-79
2022/04/08 08:40:14;;;;;;;;;;;13.70;99.90;;;;;;5053457;28;19935;-80
2022/04/08 08:42:41;;;;;;;;;;;13.90;99.90;;;;;;5053690;28;19916;-80
2022/04/08 08:45:08;;;;;;;;;;;14.00;99.90;;;;;;5037295;28;19913;-79
2022/04/08 08:47:34;;;;;;;;;;;13.90;99.90;;;;;;5058068;28;19932;-80
2022/04/08 08:50:00;;;;;;;;;;;14.10;99.90;;;;;;5057530;28;19909;-79
2022/04/08 08:52:28;;;;;;;;;;;14.60;99.90;;;;;;5057601;28;20366;-79
2022/04/08 08:54:54;;;;;;;;;;;15.00;99.90;;;;;;5057336;28;19909;-79
2022/04/08 08:57:20;;;;;;;;;;;15.70;99.90;;;;;;5039469;28;19959;-78
2022/04/08 08:59:46;;;;;;;;;;;14.70;99.90;;;;;;5057838;28;19909;-78
2022/04/08 09:02:16;;;;;;;;;;;14.60;99.90;;;;;;5057440;28;20263;-78
2022/04/08 09:04:42;;;;;;;;;;;14.40;99.90;;;;;;5057132;28;19912;-78
2022/04/08 09:07:28;;;;;;;;;;;14.60;99.90;;;;;;5057177;28;20415;-78
2022/04/08 09:09:54;;;;;;;;;;;14.50;99.90;;;;;;5056668;28;19909;-78
2022/04/08 09:12:21;;;;;;;;;;;14.00;99.90;;;;;;5039271;28;20288;-78
2022/04/08 09:14:48;;;;;;;;;;;13.70;99.90;;;;;;5057255;28;19915;-78
2022/04/08 09:17:15;;;;;;;;;;;13.90;99.90;;;;;;5039056;28;20398;-78
2022/04/08 09:19:41;;;;;;;;;;;14.30;99.90;;;;;;5056574;28;19920;-78
2022/04/08 09:22:09;;;;;;;;;;;14.20;99.90;;;;;;5057275;28;19974;-78
2022/04/08 09:24:35;;;;;;;;;;;13.90;99.90;;;;;;5056864;28;19916;-78
2022/04/08 09:27:01;;;;;;;;;;;13.80;99.90;;;;;;5056851;28;20003;-79
2022/04/08 09:29:27;;;;;;;;;;;13.60;99.90;;;;;;5056872;28;19909;-78
2022/04/08 09:31:55;;;;;;;;;;;13.20;99.90;;;;;;5056717;28;19948;-79
2022/04/08 09:34:20;;;;;;;;;;;12.50;99.90;;;;;;5056828;28;19909;-80
2022/04/08 09:36:46;;;;;;;;;;;12.30;99.90;;;;;;5056615;28;19974;-81
2022/04/08 09:39:12;;;;;;;;;;;12.30;99.90;;;;;;5056837;28;19909;-81
2022/04/08 09:41:38;;;;;;;;;;;12.40;99.90;;;;;;5056811;28;20012;-81
2022/04/08 09:44:04;;;;;;;;;;;12.50;99.90;;;;;;5038535;28;19956;-80
2022/04/08 09:46:30;;;;;;;;;;;12.60;99.90;;;;;;5056676;28;20416;-80
2022/04/08 09:48:55;;;;;;;;;;;12.50;99.90;;;;;;5056368;28;19915;-80
2022/04/08 09:51:21;;;;;;;;;;;12.70;99.90;;;;;;5038503;28;19916;-80
2022/04/08 09:53:50;;;;;;;;;;;12.60;99.90;;;;;;5038382;28;19947;-81
2022/04/08 09:56:19;;;;;;;;;;;12.80;99.90;;;;;;5037338;28;19943;-81
2022/04/08 09:58:48;;;;;;;;;;;12.90;99.90;;;;;;5056468;28;19995;-81
2022/04/08 10:01:15;;;;;;;;;;;13.50;99.90;;;;;;5056144;28;19919;-81
2022/04/08 10:03:40;;;;;;;;;;;13.90;99.90;;;;;;5056279;28;20277;-80
2022/04/08 10:06:07;;;;;;;;;;;15.50;99.90;;;;;;5056092;28;19908;-81
2022/04/08 10:14:31;;;;;;;;;;;17.80;99.90;;;;;;4996969;28;19948;-79
2022/04/08 10:16:57;;;;;;;;;;;18.20;99.90;;;;;;4959374;28;19937;-79
2022/04/08 10:19:23;;;;;;;;;;;20.90;99.90;;;;;;4996755;28;20369;-79
2022/04/08 10:21:53;;;;;;;;;;;20.00;99.90;;;;;;4996576;28;20369;-79
2022/04/08 10:24:23;;;;;;;;;;;17.20;99.90;;;;;;4996753;28;19925;-78
2022/04/08 10:26:58;;;;;;;;;;;15.70;99.90;;;;;;4996671;28;19916;-78
2022/04/08 10:29:24;;;;;;;;;;;16.50;99.90;;;;;;4996349;28;19910;-78
2022/04/08 10:32:02;;;;;;;;;;;15.70;99.90;;;;;;4996326;28;19932;-78
2022/04/08 10:34:32;;;;;;;;;;;15.70;99.90;;;;;;4996296;28;20001;-79
2022/04/08 10:36:58;;;;;;;;;;;15.30;99.90;;;;;;4996659;28;19910;-79
2022/04/08 10:39:24;;;;;;;;;;;14.80;99.90;;;;;;4978746;28;19917;-79
2022/04/08 10:41:57;;;;;;;;;;;14.70;99.90;;;;;;4996213;28;19911;-79
2022/04/08 10:44:33;;;;;;;;;;;14.80;99.90;;;;;;4978389;28;20001;-79
2022/04/08 10:47:03;;;;;;;;;;;14.90;99.90;;;;;;4996202;28;19957;-78
2022/04/08 10:49:28;;;;;;;;;;;15.00;99.90;;;;;;4996012;28;20009;-79
2022/04/08 10:51:54;;;;;;;;;;;15.20;99.90;;;;;;4995987;28;19949;-79
2022/04/08 10:54:20;;;;;;;;;;;15.30;99.90;;;;;;4996017;28;19925;-79
2022/04/08 10:56:55;;;;;;;;;;;15.40;99.90;;;;;;4978483;28;19917;-79
2022/04/08 10:59:25;;;;;;;;;;;15.00;99.90;;;;;;4995858;28;19960;-79
2022/04/08 11:01:55;;;;;;;;;;;14.50;99.90;;;;;;4978304;28;19909;-79
2022/04/08 11:04:21;;;;;;;;;;;14.70;99.90;;;;;;4995748;28;19914;-78
2022/04/08 11:06:48;;;;;;;;;;;15.80;99.90;;;;;;4978258;28;19910;-78
2022/04/08 11:09:16;;;;;;;;;;;16.50;99.90;;;;;;4995547;28;19910;-79
2022/04/08 11:11:42;;;;;;;;;;;16.30;99.90;;;;;;4995667;28;19910;-79
2022/04/08 11:14:08;;;;;;;;;;;17.50;99.90;;;;;;5015161;28;19913;-80
2022/04/08 11:16:35;;;;;;;;;;;19.30;99.90;;;;;;4997475;28;19910;-79
2022/04/08 11:19:03;;;;;;;;;;;18.60;99.90;;;;;;5015074;28;19959;-80
2022/04/08 11:21:29;;;;;;;;;;;19.60;99.90;;;;;;5015164;28;19910;-79
2022/04/08 11:24:05;;;;;;;;;;;18.00;99.90;;;;;;5014901;28;20004;-80
2022/04/08 11:26:31;;;;;;;;;;;16.20;99.90;;;;;;5015274;28;20004;-79
2022/04/08 11:29:08;;;;;;;;;;;15.40;99.90;;;;;;5014935;28;19984;-79
2022/04/08 11:31:33;;;;;;;;;;;17.30;99.90;;;;;;4997009;28;20350;-80
2022/04/08 11:34:02;;;;;;;;;;;20.30;99.90;;;;;;5014864;28;19945;-79
2022/04/08 11:36:27;;;;;;;;;;;19.20;99.90;;;;;;5014852;28;19914;-79
2022/04/08 11:38:53;;;;;;;;;;;17.30;99.90;;;;;;5014705;28;20277;-79
2022/04/08 11:41:19;;;;;;;;;;;16.40;99.90;;;;;;5014650;28;19910;-79
2022/04/08 11:43:45;;;;;;;;;;;16.10;99.90;;;;;;5014559;28;20015;-79
2022/04/08 11:46:16;;;;;;;;;;;18.80;99.90;;;;;;4996916;28;20404;-79
2022/04/08 11:48:42;;;;;;;;;;;18.80;99.90;;;;;;5015345;28;19910;-79
2022/04/08 11:51:07;;;;;;;;;;;17.80;99.90;;;;;;5014485;28;20266;-79
2022/04/08 11:53:43;;;;;;;;;;;18.20;99.90;;;;;;5014722;28;20323;-79
2022/04/08 11:56:09;;;;;;;;;;;17.50;99.90;;;;;;5014341;28;20369;-79
2022/04/08 11:58:35;;;;;;;;;;;16.70;99.90;;;;;;4996778;28;19920;-80
2022/04/08 12:01:00;;;;;;;;;;;16.60;99.90;;;;;;5014331;28;19909;-77
2022/04/08 12:03:30;;;;;;;;;;;16.90;99.90;;;;;;4996574;28;19910;-78
2022/04/08 12:05:56;;;;;;;;;;;16.60;99.90;;;;;;5014474;28;19910;-79
2022/04/08 12:08:21;;;;;;;;;;;17.00;99.90;;;;;;5014226;28;19920;-79
2022/04/08 12:10:55;;;;;;;;;;;17.10;99.90;;;;;;5014076;28;20471;-79
2022/04/08 12:13:22;;;;;;;;;;;16.90;99.90;;;;;;5012725;28;19924;-79
2022/04/08 12:15:49;;;;;;;;;;;16.70;99.90;;;;;;5014468;28;19915;-79
2022/04/08 12:18:21;;;;;;;;;;;16.60;99.90;;;;;;5014138;28;19914;-79
2022/04/08 12:20:50;;;;;;;;;;;17.00;99.90;;;;;;5013591;28;20008;-80
2022/04/08 12:23:16;;;;;;;;;;;16.90;99.90;;;;;;5014209;28;20012;-79
2022/04/08 12:25:42;;;;;;;;;;;16.20;99.90;;;;;;5014017;28;19909;-78
2022/04/08 12:28:13;;;;;;;;;;;15.60;99.90;;;;;;5014282;28;20004;-78
2022/04/08 12:30:39;;;;;;;;;;;14.80;99.90;;;;;;5013936;28;19913;-79
2022/04/08 12:33:04;;;;;;;;;;;14.30;99.90;;;;;;4996226;28;19980;-78
2022/04/08 12:35:30;;;;;;;;;;;14.10;99.90;;;;;;5013943;28;20328;-78
2022/04/08 12:37:57;;;;;;;;;;;14.10;99.90;;;;;;5014411;28;19909;-78
2022/04/08 12:40:22;;;;;;;;;;;14.00;99.90;;;;;;5013809;28;19913;-79
2022/04/08 12:42:48;;;;;;;;;;;14.40;99.90;;;;;;5013848;28;19909;-79
2022/04/08 12:45:14;;;;;;;;;;;15.20;99.90;;;;;;4996096;28;19921;-79
2022/04/08 12:47:39;;;;;;;;;;;15.60;99.90;;;;;;5014276;28;19973;-78
2022/04/08 12:50:10;;;;;;;;;;;15.60;99.90;;;;;;5013789;28;19925;-79
2022/04/08 12:52:36;;;;;;;;;;;15.60;99.90;;;;;;5014005;28;19996;-79
2022/04/08 12:55:01;;;;;;;;;;;16.20;99.90;;;;;;4996099;28;19917;-79
2022/04/08 12:57:31;;;;;;;;;;;19.10;99.90;;;;;;5013716;28;19909;-79
2022/04/08 12:59:56;;;;;;;;;;;22.70;99.90;;;;;;5013669;28;19910;-79
2022/04/08 13:02:22;;;;;;;;;;;22.30;99.90;;;;;;5013662;28;19917;-80
2022/04/08 13:04:47;;;;;;;;;;;20.90;99.90;;;;;;5013559;28;19913;-80
2022/04/08 13:07:13;;;;;;;;;;;19.90;99.90;;;;;;5013609;28;19909;-79
2022/04/08 13:09:38;;;;;;;;;;;17.90;99.90;;;;;;4995959;28;21632;-79
2022/04/08 13:12:04;;;;;;;;;;;16.20;99.90;;;;;;5013351;28;20028;-78
2022/04/08 13:14:30;;;;;;;;;;;15.70;99.90;;;;;;4995796;28;20286;-79
2022/04/08 13:16:55;;;;;;;;;;;15.50;99.90;;;;;;5013508;28;19913;-79
2022/04/08 13:19:21;;;;;;;;;;;15.50;99.90;;;;;;4995956;28;19996;-79
2022/04/08 13:21:47;;;;;;;;;;;14.80;99.90;;;;;;5013695;28;20399;-79
2022/04/08 13:24:12;;;;;;;;;;;14.40;99.90;;;;;;4995795;28;19917;-79
2022/04/08 13:26:38;;;;;;;;;;;14.20;99.90;;;;;;5013436;28;19916;-79
2022/04/08 13:29:04;;;;;;;;;;;14.00;99.90;;;;;;5013647;28;19909;-79
2022/04/08 13:31:33;;;;;;;;;;;13.60;99.90;;;;;;4996474;28;19980;-79
2022/04/08 13:33:58;;;;;;;;;;;13.20;99.90;;;;;;5017203;28;20008;-78
2022/04/08 13:36:24;;;;;;;;;;;13.10;99.90;;;;;;5017027;28;20349;-78
2022/04/08 13:38:50;;;;;;;;;;;13.30;99.90;;;;;;4999305;28;20004;-78
2022/04/08 13:41:16;;;;;;;;;;;13.00;99.90;;;;;;5016956;28;19925;-78
2022/04/08 13:43:42;;;;;;;;;;;12.70;99.90;;;;;;5016756;28;19914;-78
2022/04/08 13:46:07;;;;;;;;;;;12.40;99.90;;;;;;5016895;28;19909;-78
2022/04/08 13:48:33;;;;;;;;;;;12.10;99.90;;;;;;4999100;28;19909;-79
2022/04/08 13:50:58;;;;;;;;;;;12.00;99.90;;;;;;5016701;28;19916;-78
2022/04/08 13:53:24;;;;;;;;;;;11.90;99.90;;;;;;5016607;28;19933;-77
2022/04/08 13:55:49;;;;;;;;;;;11.90;99.90;;;;;;5016942;28;19909;-78
2022/04/08 13:58:15;;;;;;;;;;;12.00;99.90;;;;;;5016552;28;19921;-78
2022/04/08 14:00:41;;;;;;;;;;;12.10;99.90;;;;;;5016542;28;20331;-79
2022/04/08 14:03:06;;;;;;;;;;;12.10;99.90;;;;;;5016441;28;19916;-79
2022/04/08 14:05:32;;;;;;;;;;;12.30;99.90;;;;;;5016348;28;19913;-79
2022/04/08 14:07:58;;;;;;;;;;;12.40;99.90;;;;;;5016421;28;19917;-79
2022/04/08 14:10:24;;;;;;;;;;;12.10;99.90;;;;;;5016449;28;19963;-79
2022/04/08 14:12:49;;;;;;;;;;;11.70;99.90;;;;;;5015635;28;19917;-79
2022/04/08 14:15:15;;;;;;;;;;;11.80;99.90;;;;;;5016455;28;19914;-79
2022/04/08 14:17:41;;;;;;;;;;;11.90;99.90;;;;;;5016324;28;19916;-79
2022/04/08 14:20:06;;;;;;;;;;;11.80;99.90;;;;;;5016287;28;20356;-79
2022/04/08 14:22:32;;;;;;;;;;;11.80;99.90;;;;;;5016200;28;19916;-79